sensor_id;sensor_type;location;lat;lon;timestamp;P1;durP1;ratioP1;P2;durP2;ratioP2
6143;SDS011;3103;49.492;8.474;2023-02-28T00:00:35;2.97;;;2.63;;
6143;SDS011;3103;49.492;8.474;2023-02-28T00:03:03;4.40;;;3.10;;
6143;SDS011;3103;49.492;8.474;2023-02-28T00:05:30;3.03;;;2.60;;
6143;SDS011;3103;49.492;8.474;2023-02-28T00:07:57;3.60;;;3.30;;
6143;SDS011;3103;49.492;8.474;2023-02-28T00:10:25;4.83;;;3.23;;
6143;SDS011;3103;49.492;8.474;2023-02-28T00:12:54;6.17;;;3.70;;
6143;SDS011;3103;49.492;8.474;2023-02-28T00:15:25;5.87;;;3.87;;
6143;SDS011;3103;49.492;8.474;2023-02-28T00:17:52;7.10;;;4.53;;
6143;SDS011;3103;49.492;8.474;2023-02-28T00:20:19;5.47;;;3.63;;
6143;SDS011;3103;49.492;8.474;2023-02-28T00:22:48;5.47;;;3.93;;
6143;SDS011;3103;49.492;8.474;2023-02-28T00:25:17;7.93;;;5.80;;
6143;SDS011;3103;49.492;8.474;2023-02-28T00:27:46;5.03;;;3.47;;
6143;SDS011;3103;49.492;8.474;2023-02-28T00:30:23;6.70;;;4.43;;
6143;SDS011;3103;49.492;8.474;2023-02-28T00:32:50;6.67;;;3.47;;
6143;SDS011;3103;49.492;8.474;2023-02-28T00:35:17;7.37;;;4.60;;
6143;SDS011;3103;49.492;8.474;2023-02-28T00:37:44;8.37;;;5.67;;
6143;SDS011;3103;49.492;8.474;2023-02-28T00:40:11;10.00;;;6.13;;
6143;SDS011;3103;49.492;8.474;2023-02-28T00:42:38;8.80;;;4.33;;
6143;SDS011;3103;49.492;8.474;2023-02-28T00:45:07;7.10;;;4.37;;
6143;SDS011;3103;49.492;8.474;2023-02-28T00:47:37;5.67;;;3.80;;
6143;SDS011;3103;49.492;8.474;2023-02-28T00:50:04;16.97;;;8.17;;
6143;SDS011;3103;49.492;8.474;2023-02-28T00:52:32;7.23;;;4.07;;
6143;SDS011;3103;49.492;8.474;2023-02-28T00:54:58;4.73;;;3.43;;
6143;SDS011;3103;49.492;8.474;2023-02-28T00:57:26;6.57;;;3.77;;
6143;SDS011;3103;49.492;8.474;2023-02-28T00:59:52;4.70;;;3.20;;
6143;SDS011;3103;49.492;8.474;2023-02-28T01:02:21;7.10;;;4.83;;
6143;SDS011;3103;49.492;8.474;2023-02-28T01:04:48;5.23;;;3.17;;
6143;SDS011;3103;49.492;8.474;2023-02-28T01:07:15;4.20;;;3.30;;
6143;SDS011;3103;49.492;8.474;2023-02-28T01:09:42;4.27;;;3.57;;
6143;SDS011;3103;49.492;8.474;2023-02-28T01:12:09;4.87;;;3.50;;
6143;SDS011;3103;49.492;8.474;2023-02-28T01:14:35;5.53;;;3.23;;
6143;SDS011;3103;49.492;8.474;2023-02-28T01:17:02;4.80;;;3.27;;
6143;SDS011;3103;49.492;8.474;2023-02-28T01:19:31;6.00;;;3.50;;
6143;SDS011;3103;49.492;8.474;2023-02-28T01:22:00;4.30;;;3.00;;
6143;SDS011;3103;49.492;8.474;2023-02-28T01:24:27;5.57;;;4.60;;
6143;SDS011;3103;49.492;8.474;2023-02-28T01:26:54;4.70;;;3.50;;
6143;SDS011;3103;49.492;8.474;2023-02-28T01:29:21;3.93;;;3.20;;
6143;SDS011;3103;49.492;8.474;2023-02-28T01:31:48;6.57;;;4.87;;
6143;SDS011;3103;49.492;8.474;2023-02-28T01:34:14;4.73;;;3.67;;
6143;SDS011;3103;49.492;8.474;2023-02-28T01:36:41;3.70;;;3.37;;
6143;SDS011;3103;49.492;8.474;2023-02-28T01:39:07;7.70;;;4.33;;
6143;SDS011;3103;49.492;8.474;2023-02-28T01:41:34;6.60;;;4.30;;
6143;SDS011;3103;49.492;8.474;2023-02-28T01:44:04;4.40;;;3.30;;
6143;SDS011;3103;49.492;8.474;2023-02-28T01:46:34;4.17;;;3.10;;
6143;SDS011;3103;49.492;8.474;2023-02-28T01:49:07;4.63;;;3.30;;
6143;SDS011;3103;49.492;8.474;2023-02-28T01:54:18;5.43;;;3.83;;
6143;SDS011;3103;49.492;8.474;2023-02-28T01:56:57;4.80;;;3.20;;
6143;SDS011;3103;49.492;8.474;2023-02-28T01:59:37;4.13;;;3.40;;
6143;SDS011;3103;49.492;8.474;2023-02-28T02:02:17;4.60;;;3.07;;
6143;SDS011;3103;49.492;8.474;2023-02-28T02:04:50;3.53;;;3.17;;
6143;SDS011;3103;49.492;8.474;2023-02-28T02:07:46;4.93;;;3.13;;
6143;SDS011;3103;49.492;8.474;2023-02-28T02:10:15;3.47;;;2.97;;
6143;SDS011;3103;49.492;8.474;2023-02-28T02:27:43;5.43;;;3.93;;
6143;SDS011;3103;49.492;8.474;2023-02-28T02:35:52;5.03;;;3.00;;
6143;SDS011;3103;49.492;8.474;2023-02-28T02:41:04;4.57;;;3.93;;
6143;SDS011;3103;49.492;8.474;2023-02-28T02:43:40;7.70;;;3.20;;
6143;SDS011;3103;49.492;8.474;2023-02-28T02:46:20;5.67;;;2.90;;
6143;SDS011;3103;49.492;8.474;2023-02-28T02:48:49;4.23;;;3.27;;
6143;SDS011;3103;49.492;8.474;2023-02-28T02:51:20;3.60;;;3.20;;
6143;SDS011;3103;49.492;8.474;2023-02-28T02:53:50;3.73;;;3.23;;
6143;SDS011;3103;49.492;8.474;2023-02-28T02:56:23;4.23;;;3.17;;
6143;SDS011;3103;49.492;8.474;2023-02-28T02:58:53;3.30;;;2.90;;
6143;SDS011;3103;49.492;8.474;2023-02-28T03:01:25;4.93;;;3.07;;
6143;SDS011;3103;49.492;8.474;2023-02-28T03:03:57;3.20;;;2.90;;
6143;SDS011;3103;49.492;8.474;2023-02-28T03:06:27;3.57;;;3.27;;
6143;SDS011;3103;49.492;8.474;2023-02-28T03:08:54;3.50;;;3.20;;
6143;SDS011;3103;49.492;8.474;2023-02-28T03:11:22;4.47;;;3.43;;
6143;SDS011;3103;49.492;8.474;2023-02-28T03:13:52;5.80;;;3.10;;
6143;SDS011;3103;49.492;8.474;2023-02-28T03:25:07;3.60;;;3.17;;
6143;SDS011;3103;49.492;8.474;2023-02-28T03:30:28;4.23;;;3.43;;
6143;SDS011;3103;49.492;8.474;2023-02-28T03:33:03;3.57;;;3.03;;
6143;SDS011;3103;49.492;8.474;2023-02-28T03:35:37;3.57;;;3.10;;
6143;SDS011;3103;49.492;8.474;2023-02-28T03:38:23;3.67;;;3.10;;
6143;SDS011;3103;49.492;8.474;2023-02-28T03:41:05;3.53;;;3.20;;
6143;SDS011;3103;49.492;8.474;2023-02-28T03:43:38;3.57;;;3.27;;
6143;SDS011;3103;49.492;8.474;2023-02-28T03:46:10;4.23;;;3.60;;
6143;SDS011;3103;49.492;8.474;2023-02-28T03:48:43;3.87;;;3.03;;
6143;SDS011;3103;49.492;8.474;2023-02-28T03:51:15;3.27;;;3.03;;
6143;SDS011;3103;49.492;8.474;2023-02-28T03:53:45;5.10;;;3.83;;
6143;SDS011;3103;49.492;8.474;2023-02-28T03:56:20;7.13;;;3.40;;
6143;SDS011;3103;49.492;8.474;2023-02-28T03:59:22;5.47;;;3.60;;
6143;SDS011;3103;49.492;8.474;2023-02-28T04:01:54;3.40;;;3.10;;
6143;SDS011;3103;49.492;8.474;2023-02-28T04:04:24;3.73;;;3.37;;
6143;SDS011;3103;49.492;8.474;2023-02-28T04:06:51;3.90;;;3.50;;
6143;SDS011;3103;49.492;8.474;2023-02-28T04:09:19;3.87;;;3.27;;
6143;SDS011;3103;49.492;8.474;2023-02-28T04:11:50;3.33;;;3.03;;
6143;SDS011;3103;49.492;8.474;2023-02-28T04:14:18;3.87;;;3.07;;
6143;SDS011;3103;49.492;8.474;2023-02-28T04:16:45;3.33;;;3.03;;
6143;SDS011;3103;49.492;8.474;2023-02-28T04:19:12;3.70;;;3.40;;
6143;SDS011;3103;49.492;8.474;2023-02-28T04:21:46;4.53;;;3.57;;
6143;SDS011;3103;49.492;8.474;2023-02-28T04:24:16;5.60;;;3.57;;
6143;SDS011;3103;49.492;8.474;2023-02-28T04:26:49;4.23;;;3.00;;
6143;SDS011;3103;49.492;8.474;2023-02-28T04:29:21;3.90;;;3.50;;
6143;SDS011;3103;49.492;8.474;2023-02-28T04:31:55;5.20;;;3.50;;
6143;SDS011;3103;49.492;8.474;2023-02-28T04:34:26;5.13;;;3.50;;
6143;SDS011;3103;49.492;8.474;2023-02-28T04:36:55;4.10;;;3.40;;
6143;SDS011;3103;49.492;8.474;2023-02-28T04:39:38;3.60;;;3.03;;
6143;SDS011;3103;49.492;8.474;2023-02-28T04:42:05;4.03;;;3.60;;
6143;SDS011;3103;49.492;8.474;2023-02-28T04:44:32;3.17;;;2.87;;
6143;SDS011;3103;49.492;8.474;2023-02-28T04:46:59;4.83;;;3.30;;
6143;SDS011;3103;49.492;8.474;2023-02-28T04:49:26;3.83;;;3.10;;
6143;SDS011;3103;49.492;8.474;2023-02-28T04:51:53;3.83;;;3.30;;
6143;SDS011;3103;49.492;8.474;2023-02-28T04:54:19;3.27;;;2.93;;
6143;SDS011;3103;49.492;8.474;2023-02-28T04:56:46;3.63;;;3.00;;
6143;SDS011;3103;49.492;8.474;2023-02-28T04:59:16;5.83;;;3.20;;
6143;SDS011;3103;49.492;8.474;2023-02-28T05:01:45;3.67;;;3.13;;
6143;SDS011;3103;49.492;8.474;2023-02-28T05:04:13;4.27;;;3.37;;
6143;SDS011;3103;49.492;8.474;2023-02-28T05:06:40;5.13;;;3.83;;
6143;SDS011;3103;49.492;8.474;2023-02-28T05:09:06;3.63;;;3.03;;
6143;SDS011;3103;49.492;8.474;2023-02-28T05:11:33;5.13;;;3.60;;
6143;SDS011;3103;49.492;8.474;2023-02-28T05:14:06;4.03;;;3.47;;
6143;SDS011;3103;49.492;8.474;2023-02-28T05:16:36;3.80;;;3.20;;
6143;SDS011;3103;49.492;8.474;2023-02-28T05:19:03;3.47;;;3.17;;
6143;SDS011;3103;49.492;8.474;2023-02-28T05:21:37;4.57;;;3.17;;
6143;SDS011;3103;49.492;8.474;2023-02-28T05:24:07;3.70;;;3.30;;
6143;SDS011;3103;49.492;8.474;2023-02-28T05:26:37;5.03;;;3.63;;
6143;SDS011;3103;49.492;8.474;2023-02-28T05:29:06;4.10;;;3.40;;
6143;SDS011;3103;49.492;8.474;2023-02-28T05:31:32;6.97;;;3.60;;
6143;SDS011;3103;49.492;8.474;2023-02-28T05:33:59;5.10;;;3.60;;
6143;SDS011;3103;49.492;8.474;2023-02-28T05:36:26;6.37;;;3.30;;
6143;SDS011;3103;49.492;8.474;2023-02-28T05:38:53;4.63;;;3.43;;
6143;SDS011;3103;49.492;8.474;2023-02-28T05:41:20;3.53;;;3.20;;
6143;SDS011;3103;49.492;8.474;2023-02-28T05:43:47;3.87;;;3.47;;
6143;SDS011;3103;49.492;8.474;2023-02-28T05:46:14;6.10;;;3.47;;
6143;SDS011;3103;49.492;8.474;2023-02-28T05:48:41;3.93;;;3.17;;
6143;SDS011;3103;49.492;8.474;2023-02-28T05:51:09;4.60;;;3.60;;
6143;SDS011;3103;49.492;8.474;2023-02-28T05:53:36;3.43;;;3.13;;
6143;SDS011;3103;49.492;8.474;2023-02-28T05:56:03;4.33;;;3.10;;
6143;SDS011;3103;49.492;8.474;2023-02-28T05:58:30;4.53;;;3.20;;
6143;SDS011;3103;49.492;8.474;2023-02-28T06:00:58;3.87;;;3.40;;
6143;SDS011;3103;49.492;8.474;2023-02-28T06:03:25;7.27;;;3.83;;
6143;SDS011;3103;49.492;8.474;2023-02-28T06:05:52;5.20;;;3.43;;
6143;SDS011;3103;49.492;8.474;2023-02-28T06:08:19;5.30;;;3.40;;
6143;SDS011;3103;49.492;8.474;2023-02-28T06:10:46;4.17;;;3.30;;
6143;SDS011;3103;49.492;8.474;2023-02-28T06:13:13;6.07;;;3.60;;
6143;SDS011;3103;49.492;8.474;2023-02-28T06:15:40;4.07;;;3.40;;
6143;SDS011;3103;49.492;8.474;2023-02-28T06:18:07;4.60;;;3.73;;
6143;SDS011;3103;49.492;8.474;2023-02-28T06:20:34;4.03;;;3.60;;
6143;SDS011;3103;49.492;8.474;2023-02-28T06:23:02;5.07;;;3.70;;
6143;SDS011;3103;49.492;8.474;2023-02-28T06:25:29;5.47;;;3.73;;
6143;SDS011;3103;49.492;8.474;2023-02-28T06:27:56;4.57;;;3.40;;
6143;SDS011;3103;49.492;8.474;2023-02-28T06:30:23;3.70;;;3.40;;
6143;SDS011;3103;49.492;8.474;2023-02-28T06:32:53;5.00;;;3.63;;
6143;SDS011;3103;49.492;8.474;2023-02-28T06:35:20;5.77;;;3.77;;
6143;SDS011;3103;49.492;8.474;2023-02-28T06:37:47;4.27;;;3.50;;
6143;SDS011;3103;49.492;8.474;2023-02-28T06:40:14;8.27;;;4.50;;
6143;SDS011;3103;49.492;8.474;2023-02-28T06:42:41;5.03;;;3.60;;
6143;SDS011;3103;49.492;8.474;2023-02-28T06:45:08;5.97;;;3.70;;
6143;SDS011;3103;49.492;8.474;2023-02-28T06:47:37;9.37;;;3.83;;
6143;SDS011;3103;49.492;8.474;2023-02-28T06:50:06;6.57;;;3.93;;
6143;SDS011;3103;49.492;8.474;2023-02-28T06:52:35;5.37;;;3.63;;
6143;SDS011;3103;49.492;8.474;2023-02-28T06:55:06;6.60;;;3.80;;
6143;SDS011;3103;49.492;8.474;2023-02-28T06:57:34;4.13;;;3.67;;
6143;SDS011;3103;49.492;8.474;2023-02-28T07:00:06;4.53;;;3.67;;
6143;SDS011;3103;49.492;8.474;2023-02-28T07:02:35;5.53;;;4.10;;
6143;SDS011;3103;49.492;8.474;2023-02-28T07:05:03;9.87;;;3.77;;
6143;SDS011;3103;49.492;8.474;2023-02-28T07:07:31;7.03;;;4.07;;
6143;SDS011;3103;49.492;8.474;2023-02-28T07:09:58;5.50;;;3.80;;
6143;SDS011;3103;49.492;8.474;2023-02-28T07:12:25;5.63;;;4.03;;
6143;SDS011;3103;49.492;8.474;2023-02-28T07:14:51;7.57;;;4.13;;
6143;SDS011;3103;49.492;8.474;2023-02-28T07:17:18;6.07;;;3.87;;
6143;SDS011;3103;49.492;8.474;2023-02-28T07:19:45;4.93;;;4.00;;
6143;SDS011;3103;49.492;8.474;2023-02-28T07:22:11;4.43;;;4.00;;
6143;SDS011;3103;49.492;8.474;2023-02-28T07:24:41;5.53;;;4.00;;
6143;SDS011;3103;49.492;8.474;2023-02-28T07:27:07;6.50;;;3.97;;
6143;SDS011;3103;49.492;8.474;2023-02-28T07:29:34;5.50;;;3.63;;
6143;SDS011;3103;49.492;8.474;2023-02-28T07:32:01;8.43;;;3.93;;
6143;SDS011;3103;49.492;8.474;2023-02-28T07:34:27;5.73;;;4.33;;
6143;SDS011;3103;49.492;8.474;2023-02-28T07:36:54;5.00;;;4.27;;
6143;SDS011;3103;49.492;8.474;2023-02-28T07:39:21;7.53;;;4.70;;
6143;SDS011;3103;49.492;8.474;2023-02-28T07:41:48;7.17;;;4.23;;
6143;SDS011;3103;49.492;8.474;2023-02-28T07:44:15;5.93;;;4.00;;
6143;SDS011;3103;49.492;8.474;2023-02-28T07:46:41;4.33;;;3.93;;
6143;SDS011;3103;49.492;8.474;2023-02-28T07:49:08;4.93;;;4.30;;
6143;SDS011;3103;49.492;8.474;2023-02-28T07:51:35;4.67;;;3.57;;
6143;SDS011;3103;49.492;8.474;2023-02-28T07:54:02;5.97;;;4.20;;
6143;SDS011;3103;49.492;8.474;2023-02-28T07:56:29;6.77;;;4.10;;
6143;SDS011;3103;49.492;8.474;2023-02-28T07:58:56;4.77;;;4.03;;
6143;SDS011;3103;49.492;8.474;2023-02-28T08:01:23;5.00;;;3.83;;
6143;SDS011;3103;49.492;8.474;2023-02-28T08:03:50;4.53;;;4.00;;
6143;SDS011;3103;49.492;8.474;2023-02-28T08:06:21;5.17;;;4.20;;
6143;SDS011;3103;49.492;8.474;2023-02-28T08:08:50;7.20;;;4.13;;
6143;SDS011;3103;49.492;8.474;2023-02-28T08:11:17;9.10;;;5.50;;
6143;SDS011;3103;49.492;8.474;2023-02-28T08:13:44;7.40;;;4.70;;
6143;SDS011;3103;49.492;8.474;2023-02-28T08:16:12;16.27;;;6.07;;
6143;SDS011;3103;49.492;8.474;2023-02-28T08:18:44;7.70;;;4.20;;
6143;SDS011;3103;49.492;8.474;2023-02-28T08:21:10;7.73;;;3.97;;
6143;SDS011;3103;49.492;8.474;2023-02-28T08:23:37;4.63;;;4.07;;
6143;SDS011;3103;49.492;8.474;2023-02-28T08:26:05;5.73;;;4.47;;
6143;SDS011;3103;49.492;8.474;2023-02-28T08:28:32;6.13;;;4.33;;
6143;SDS011;3103;49.492;8.474;2023-02-28T08:30:59;4.93;;;3.90;;
6143;SDS011;3103;49.492;8.474;2023-02-28T08:33:26;5.70;;;4.60;;
6143;SDS011;3103;49.492;8.474;2023-02-28T08:35:56;5.67;;;4.40;;
6143;SDS011;3103;49.492;8.474;2023-02-28T08:38:23;5.47;;;4.00;;
6143;SDS011;3103;49.492;8.474;2023-02-28T08:40:56;7.13;;;5.47;;
6143;SDS011;3103;49.492;8.474;2023-02-28T08:43:24;9.63;;;7.03;;
6143;SDS011;3103;49.492;8.474;2023-02-28T08:45:52;10.53;;;6.87;;
6143;SDS011;3103;49.492;8.474;2023-02-28T08:48:19;11.27;;;7.23;;
6143;SDS011;3103;49.492;8.474;2023-02-28T08:50:59;9.73;;;6.77;;
6143;SDS011;3103;49.492;8.474;2023-02-28T08:53:33;7.87;;;5.77;;
6143;SDS011;3103;49.492;8.474;2023-02-28T08:56:04;9.93;;;6.07;;
6143;SDS011;3103;49.492;8.474;2023-02-28T08:58:35;13.37;;;7.93;;
6143;SDS011;3103;49.492;8.474;2023-02-28T09:01:09;10.97;;;5.60;;
6143;SDS011;3103;49.492;8.474;2023-02-28T09:03:38;11.47;;;6.20;;
6143;SDS011;3103;49.492;8.474;2023-02-28T09:06:08;10.10;;;7.50;;
6143;SDS011;3103;49.492;8.474;2023-02-28T09:08:36;12.77;;;7.30;;
6143;SDS011;3103;49.492;8.474;2023-02-28T09:11:03;10.13;;;6.40;;
6143;SDS011;3103;49.492;8.474;2023-02-28T09:13:31;8.40;;;6.10;;
6143;SDS011;3103;49.492;8.474;2023-02-28T09:15:59;29.77;;;17.73;;
6143;SDS011;3103;49.492;8.474;2023-02-28T09:18:26;26.40;;;15.60;;
6143;SDS011;3103;49.492;8.474;2023-02-28T09:20:53;15.27;;;10.10;;
6143;SDS011;3103;49.492;8.474;2023-02-28T09:23:21;21.87;;;11.67;;
6143;SDS011;3103;49.492;8.474;2023-02-28T09:25:49;12.60;;;8.43;;
6143;SDS011;3103;49.492;8.474;2023-02-28T09:28:20;10.43;;;6.13;;
6143;SDS011;3103;49.492;8.474;2023-02-28T09:30:49;9.33;;;5.97;;
6143;SDS011;3103;49.492;8.474;2023-02-28T09:33:17;12.07;;;8.20;;
6143;SDS011;3103;49.492;8.474;2023-02-28T09:35:50;10.63;;;5.97;;
6143;SDS011;3103;49.492;8.474;2023-02-28T09:38:17;8.87;;;5.57;;
6143;SDS011;3103;49.492;8.474;2023-02-28T09:40:51;9.73;;;6.47;;
6143;SDS011;3103;49.492;8.474;2023-02-28T09:43:20;9.30;;;6.33;;
6143;SDS011;3103;49.492;8.474;2023-02-28T09:45:52;7.03;;;5.37;;
6143;SDS011;3103;49.492;8.474;2023-02-28T09:48:29;38.93;;;24.20;;
6143;SDS011;3103;49.492;8.474;2023-02-28T09:51:05;28.77;;;17.40;;
6143;SDS011;3103;49.492;8.474;2023-02-28T09:53:48;32.43;;;18.00;;
6143;SDS011;3103;49.492;8.474;2023-02-28T09:56:25;18.03;;;10.30;;
6143;SDS011;3103;49.492;8.474;2023-02-28T10:04:52;21.73;;;13.20;;
6143;SDS011;3103;49.492;8.474;2023-02-28T10:16:08;7.17;;;5.43;;
6143;SDS011;3103;49.492;8.474;2023-02-28T10:18:50;5.73;;;4.80;;
6143;SDS011;3103;49.492;8.474;2023-02-28T10:21:27;6.50;;;5.13;;
6143;SDS011;3103;49.492;8.474;2023-02-28T10:24:01;13.90;;;9.47;;
6143;SDS011;3103;49.492;8.474;2023-02-28T10:26:31;25.97;;;15.27;;
6143;SDS011;3103;49.492;8.474;2023-02-28T10:28:59;13.73;;;10.07;;
6143;SDS011;3103;49.492;8.474;2023-02-28T10:31:26;11.33;;;7.80;;
6143;SDS011;3103;49.492;8.474;2023-02-28T10:33:53;12.63;;;8.10;;
6143;SDS011;3103;49.492;8.474;2023-02-28T10:36:20;10.80;;;7.27;;
6143;SDS011;3103;49.492;8.474;2023-02-28T10:38:58;8.73;;;5.37;;
6143;SDS011;3103;49.492;8.474;2023-02-28T10:44:12;16.37;;;8.00;;
6143;SDS011;3103;49.492;8.474;2023-02-28T10:46:40;9.80;;;6.13;;
6143;SDS011;3103;49.492;8.474;2023-02-28T10:49:13;14.23;;;9.17;;
6143;SDS011;3103;49.492;8.474;2023-02-28T10:51:51;14.47;;;10.60;;
6143;SDS011;3103;49.492;8.474;2023-02-28T10:54:22;10.10;;;6.93;;
6143;SDS011;3103;49.492;8.474;2023-02-28T10:57:05;7.67;;;5.40;;
6143;SDS011;3103;49.492;8.474;2023-02-28T10:59:49;25.77;;;16.20;;
6143;SDS011;3103;49.492;8.474;2023-02-28T11:05:27;23.70;;;15.10;;
6143;SDS011;3103;49.492;8.474;2023-02-28T11:08:03;8.10;;;5.60;;
6143;SDS011;3103;49.492;8.474;2023-02-28T11:10:31;10.17;;;5.23;;
6143;SDS011;3103;49.492;8.474;2023-02-28T11:13:01;6.73;;;5.53;;
6143;SDS011;3103;49.492;8.474;2023-02-28T11:15:30;16.03;;;6.37;;
6143;SDS011;3103;49.492;8.474;2023-02-28T11:18:06;6.60;;;5.47;;
6143;SDS011;3103;49.492;8.474;2023-02-28T11:20:48;9.17;;;6.13;;
6143;SDS011;3103;49.492;8.474;2023-02-28T11:23:17;7.60;;;5.63;;
6143;SDS011;3103;49.492;8.474;2023-02-28T11:25:57;9.63;;;6.33;;
6143;SDS011;3103;49.492;8.474;2023-02-28T11:28:27;9.13;;;5.93;;
6143;SDS011;3103;49.492;8.474;2023-02-28T11:33:31;9.50;;;6.00;;
6143;SDS011;3103;49.492;8.474;2023-02-28T11:36:27;14.13;;;6.47;;
6143;SDS011;3103;49.492;8.474;2023-02-28T11:38:56;7.43;;;5.10;;
6143;SDS011;3103;49.492;8.474;2023-02-28T11:41:44;9.03;;;6.00;;
6143;SDS011;3103;49.492;8.474;2023-02-28T11:55:47;7.47;;;5.30;;
6143;SDS011;3103;49.492;8.474;2023-02-28T12:04:08;6.57;;;4.80;;
6143;SDS011;3103;49.492;8.474;2023-02-28T12:06:50;10.23;;;5.33;;
6143;SDS011;3103;49.492;8.474;2023-02-28T12:09:33;6.87;;;5.07;;
6143;SDS011;3103;49.492;8.474;2023-02-28T12:12:23;9.00;;;5.87;;
6143;SDS011;3103;49.492;8.474;2023-02-28T12:21:03;7.13;;;5.30;;
6143;SDS011;3103;49.492;8.474;2023-02-28T12:23:44;7.77;;;5.63;;
6143;SDS011;3103;49.492;8.474;2023-02-28T12:29:16;6.50;;;4.90;;
6143;SDS011;3103;49.492;8.474;2023-02-28T12:32:21;8.70;;;5.23;;
6143;SDS011;3103;49.492;8.474;2023-02-28T12:34:57;7.03;;;5.40;;
6143;SDS011;3103;49.492;8.474;2023-02-28T12:40:05;9.80;;;5.23;;
6143;SDS011;3103;49.492;8.474;2023-02-28T12:42:57;7.73;;;5.33;;
6143;SDS011;3103;49.492;8.474;2023-02-28T12:45:34;10.37;;;5.40;;
6143;SDS011;3103;49.492;8.474;2023-02-28T12:48:10;7.77;;;5.10;;
6143;SDS011;3103;49.492;8.474;2023-02-28T12:50:41;6.43;;;4.47;;
6143;SDS011;3103;49.492;8.474;2023-02-28T12:53:13;9.20;;;5.07;;
6143;SDS011;3103;49.492;8.474;2023-02-28T12:56:03;7.70;;;5.47;;
6143;SDS011;3103;49.492;8.474;2023-02-28T12:58:39;6.10;;;4.97;;
6143;SDS011;3103;49.492;8.474;2023-02-28T13:10:03;16.20;;;9.83;;
6143;SDS011;3103;49.492;8.474;2023-02-28T13:12:34;13.43;;;8.60;;
6143;SDS011;3103;49.492;8.474;2023-02-28T13:15:04;15.03;;;9.23;;
6143;SDS011;3103;49.492;8.474;2023-02-28T13:17:31;13.33;;;7.70;;
6143;SDS011;3103;49.492;8.474;2023-02-28T13:19:58;20.53;;;12.57;;
6143;SDS011;3103;49.492;8.474;2023-02-28T13:25:50;13.73;;;7.53;;
6143;SDS011;3103;49.492;8.474;2023-02-28T13:27:52;9.70;;;6.57;;
6143;SDS011;3103;49.492;8.474;2023-02-28T13:31:09;7.50;;;5.73;;
6143;SDS011;3103;49.492;8.474;2023-02-28T13:33:24;10.10;;;7.13;;
6143;SDS011;3103;49.492;8.474;2023-02-28T13:36:06;10.97;;;7.47;;
6143;SDS011;3103;49.492;8.474;2023-02-28T13:38:43;10.27;;;7.07;;
6143;SDS011;3103;49.492;8.474;2023-02-28T13:54:44;8.07;;;5.80;;
6143;SDS011;3103;49.492;8.474;2023-02-28T13:57:29;9.03;;;6.13;;
6143;SDS011;3103;49.492;8.474;2023-02-28T14:05:43;7.53;;;5.90;;
6143;SDS011;3103;49.492;8.474;2023-02-28T14:08:22;7.40;;;5.93;;
6143;SDS011;3103;49.492;8.474;2023-02-28T14:10:50;7.73;;;5.83;;
6143;SDS011;3103;49.492;8.474;2023-02-28T14:16:14;7.20;;;5.70;;
6143;SDS011;3103;49.492;8.474;2023-02-28T14:18:51;7.90;;;5.80;;
6143;SDS011;3103;49.492;8.474;2023-02-28T14:21:27;8.00;;;6.03;;
6143;SDS011;3103;49.492;8.474;2023-02-28T14:32:32;6.20;;;5.23;;
6143;SDS011;3103;49.492;8.474;2023-02-28T14:37:52;9.13;;;6.87;;
6143;SDS011;3103;49.492;8.474;2023-02-28T14:40:30;8.40;;;5.93;;
6143;SDS011;3103;49.492;8.474;2023-02-28T14:42:59;8.60;;;5.87;;
6143;SDS011;3103;49.492;8.474;2023-02-28T14:45:30;7.97;;;5.77;;
6143;SDS011;3103;49.492;8.474;2023-02-28T14:47:58;7.40;;;6.13;;
6143;SDS011;3103;49.492;8.474;2023-02-28T14:50:29;6.90;;;5.87;;
6143;SDS011;3103;49.492;8.474;2023-02-28T14:52:58;9.93;;;6.50;;
6143;SDS011;3103;49.492;8.474;2023-02-28T14:55:29;15.63;;;9.57;;
6143;SDS011;3103;49.492;8.474;2023-02-28T14:57:59;8.83;;;6.20;;
6143;SDS011;3103;49.492;8.474;2023-02-28T15:00:34;11.00;;;8.00;;
6143;SDS011;3103;49.492;8.474;2023-02-28T15:06:00;9.50;;;7.17;;
6143;SDS011;3103;49.492;8.474;2023-02-28T15:08:30;11.73;;;8.07;;
6143;SDS011;3103;49.492;8.474;2023-02-28T15:11:02;11.83;;;7.27;;
6143;SDS011;3103;49.492;8.474;2023-02-28T15:13:42;14.47;;;10.10;;
6143;SDS011;3103;49.492;8.474;2023-02-28T15:16:25;13.83;;;8.73;;
6143;SDS011;3103;49.492;8.474;2023-02-28T15:18:59;13.00;;;8.77;;
6143;SDS011;3103;49.492;8.474;2023-02-28T15:21:33;10.50;;;8.20;;
6143;SDS011;3103;49.492;8.474;2023-02-28T15:24:06;11.23;;;7.50;;
6143;SDS011;3103;49.492;8.474;2023-02-28T15:26:39;14.37;;;9.20;;
6143;SDS011;3103;49.492;8.474;2023-02-28T15:29:10;11.27;;;8.27;;
6143;SDS011;3103;49.492;8.474;2023-02-28T15:31:44;10.30;;;7.13;;
6143;SDS011;3103;49.492;8.474;2023-02-28T15:34:39;19.03;;;11.60;;
6143;SDS011;3103;49.492;8.474;2023-02-28T15:37:33;19.17;;;12.13;;
6143;SDS011;3103;49.492;8.474;2023-02-28T15:43:17;11.93;;;7.80;;
6143;SDS011;3103;49.492;8.474;2023-02-28T15:45:51;9.90;;;7.03;;
6143;SDS011;3103;49.492;8.474;2023-02-28T15:48:25;10.93;;;7.90;;
6143;SDS011;3103;49.492;8.474;2023-02-28T15:50:57;9.53;;;6.70;;
6143;SDS011;3103;49.492;8.474;2023-02-28T15:53:29;15.70;;;6.50;;
6143;SDS011;3103;49.492;8.474;2023-02-28T15:56:02;8.10;;;6.00;;
6143;SDS011;3103;49.492;8.474;2023-02-28T15:58:32;8.67;;;6.47;;
6143;SDS011;3103;49.492;8.474;2023-02-28T16:01:05;13.23;;;7.67;;
6143;SDS011;3103;49.492;8.474;2023-02-28T16:03:47;35.47;;;19.63;;
6143;SDS011;3103;49.492;8.474;2023-02-28T16:08:43;10.73;;;6.53;;
6143;SDS011;3103;49.492;8.474;2023-02-28T16:11:11;11.87;;;8.30;;
6143;SDS011;3103;49.492;8.474;2023-02-28T16:13:37;13.57;;;7.97;;
6143;SDS011;3103;49.492;8.474;2023-02-28T16:16:04;18.73;;;11.60;;
6143;SDS011;3103;49.492;8.474;2023-02-28T16:18:31;11.30;;;7.50;;
6143;SDS011;3103;49.492;8.474;2023-02-28T16:20:58;12.07;;;7.80;;
6143;SDS011;3103;49.492;8.474;2023-02-28T16:23:24;12.93;;;7.63;;
6143;SDS011;3103;49.492;8.474;2023-02-28T16:25:51;11.77;;;7.93;;
6143;SDS011;3103;49.492;8.474;2023-02-28T16:28:19;12.73;;;8.20;;
6143;SDS011;3103;49.492;8.474;2023-02-28T16:30:53;10.80;;;7.37;;
6143;SDS011;3103;49.492;8.474;2023-02-28T16:33:20;8.77;;;6.10;;
6143;SDS011;3103;49.492;8.474;2023-02-28T16:35:47;11.00;;;7.80;;
6143;SDS011;3103;49.492;8.474;2023-02-28T16:38:13;16.40;;;9.43;;
6143;SDS011;3103;49.492;8.474;2023-02-28T16:40:40;11.43;;;8.13;;
6143;SDS011;3103;49.492;8.474;2023-02-28T16:43:08;16.40;;;10.23;;
6143;SDS011;3103;49.492;8.474;2023-02-28T16:45:41;24.60;;;13.97;;
6143;SDS011;3103;49.492;8.474;2023-02-28T16:48:12;14.20;;;9.03;;
6143;SDS011;3103;49.492;8.474;2023-02-28T16:50:41;12.33;;;8.07;;
6143;SDS011;3103;49.492;8.474;2023-02-28T16:53:10;12.60;;;8.00;;
6143;SDS011;3103;49.492;8.474;2023-02-28T16:55:37;11.07;;;7.90;;
6143;SDS011;3103;49.492;8.474;2023-02-28T16:58:04;11.43;;;8.17;;
6143;SDS011;3103;49.492;8.474;2023-02-28T17:00:32;11.63;;;7.70;;
6143;SDS011;3103;49.492;8.474;2023-02-28T17:02:59;11.77;;;7.50;;
6143;SDS011;3103;49.492;8.474;2023-02-28T17:05:26;11.27;;;6.63;;
6143;SDS011;3103;49.492;8.474;2023-02-28T17:07:57;8.43;;;6.70;;
6143;SDS011;3103;49.492;8.474;2023-02-28T17:10:24;10.33;;;6.40;;
6143;SDS011;3103;49.492;8.474;2023-02-28T17:12:52;10.70;;;7.33;;
6143;SDS011;3103;49.492;8.474;2023-02-28T17:15:28;7.53;;;5.97;;
6143;SDS011;3103;49.492;8.474;2023-02-28T17:17:57;11.43;;;6.97;;
6143;SDS011;3103;49.492;8.474;2023-02-28T17:20:24;8.00;;;6.10;;
6143;SDS011;3103;49.492;8.474;2023-02-28T17:22:53;9.33;;;7.03;;
6143;SDS011;3103;49.492;8.474;2023-02-28T17:25:20;10.80;;;5.97;;
6143;SDS011;3103;49.492;8.474;2023-02-28T17:27:48;12.13;;;7.40;;
6143;SDS011;3103;49.492;8.474;2023-02-28T17:30:21;11.50;;;7.73;;
6143;SDS011;3103;49.492;8.474;2023-02-28T17:32:50;7.80;;;6.37;;
6143;SDS011;3103;49.492;8.474;2023-02-28T17:35:17;10.57;;;7.13;;
6143;SDS011;3103;49.492;8.474;2023-02-28T17:37:44;8.80;;;6.50;;
6143;SDS011;3103;49.492;8.474;2023-02-28T17:40:19;9.83;;;6.73;;
6143;SDS011;3103;49.492;8.474;2023-02-28T17:42:47;11.70;;;6.60;;
6143;SDS011;3103;49.492;8.474;2023-02-28T17:45:14;7.77;;;6.30;;
6143;SDS011;3103;49.492;8.474;2023-02-28T17:47:41;8.20;;;6.20;;
6143;SDS011;3103;49.492;8.474;2023-02-28T17:50:12;8.40;;;5.87;;
6143;SDS011;3103;49.492;8.474;2023-02-28T17:52:41;8.57;;;6.37;;
6143;SDS011;3103;49.492;8.474;2023-02-28T17:55:08;9.00;;;5.93;;